Metar Aviation Weather Data ENHD

9°C Temp
7°C Dewpoint
% Humidity
Temperature
10 KM/H
6 MPH
5 KTS
40°
North East

Wind Speed
Mostly Cloudy
Conditions
Pressure 1002.92 (hPa) - 29.62 (in)
Visibility 6.2 (mi) - 10 (km)

Current Conditions
ENHD
Metar :ENHD 151650Z 04005KT 9999 BKN035 09/07 Q1003
Tue 15th October 18:50 pm

  Metar Aviation API Data Provided by https://www.checkwx.com/ PHP scripts by weather34.com ©2019